Time;durP1;ratioP1;P1;durP2;ratioP2;P2;SDS_P1;SDS_P2;PMS_P1;PMS_P2;Temp;Humidity;BMP_temperature;BMP_pressure;BME280_temperature;BME280_humidity;BME280_pressure;Samples;Min_cycle;Max_cycle;Signal;HPM_P1;HPM_P2
2021/12/01 00:02:06;;;;;;;1.00;0.50;;;;;;;;;;5075742;28;20411;-77
2021/12/01 00:04:32;;;;;;;1.13;0.60;;;;;;;;;;5074230;28;20418;-77
2021/12/01 00:06:58;;;;;;;2.07;0.53;;;;;;;;;;5073739;28;20450;-77
2021/12/01 00:09:24;;;;;;;0.97;0.53;;;;;;;;;;5073234;28;20399;-77
2021/12/01 00:11:50;;;;;;;0.90;0.50;;;;;;;;;;5073289;28;20907;-78
2021/12/01 00:14:16;;;;;;;0.90;0.50;;;;;;;;;;5074956;28;20403;-77
2021/12/01 00:16:42;;;;;;;0.87;0.50;;;;;;;;;;5073465;28;20490;-78
2021/12/01 00:19:08;;;;;;;1.10;0.60;;;;;;;;;;5073409;28;20465;-78
2021/12/01 00:21:34;;;;;;;2.10;0.60;;;;;;;;;;5074219;28;20933;-78
2021/12/01 00:24:00;;;;;;;0.90;0.50;;;;;;;;;;5074416;28;20866;-79
2021/12/01 00:26:26;;;;;;;0.90;0.50;;;;;;;;;;5071827;28;20842;-78
2021/12/01 00:28:52;;;;;;;0.90;0.40;;;;;;;;;;5073213;28;20805;-79
2021/12/01 00:31:19;;;;;;;1.00;0.50;;;;;;;;;;5073382;28;20426;-78
2021/12/01 00:33:45;;;;;;;0.90;0.50;;;;;;;;;;5073597;28;20402;-78
2021/12/01 00:36:13;;;;;;;0.90;0.50;;;;;;;;;;5073688;28;20407;-78
2021/12/01 00:38:41;;;;;;;1.00;0.50;;;;;;;;;;5073165;28;20502;-78
2021/12/01 00:41:08;;;;;;;0.90;0.50;;;;;;;;;;5074133;28;20970;-78
2021/12/01 00:43:36;;;;;;;1.20;0.70;;;;;;;;;;5074172;28;20411;-79
2021/12/01 00:46:12;;;;;;;1.20;0.60;;;;;;;;;;5071174;28;20414;-79
2021/12/01 00:48:38;;;;;;;3.83;0.50;;;;;;;;;;5073410;28;20481;-79
2021/12/01 00:51:04;;;;;;;1.00;0.53;;;;;;;;;;5074580;28;20449;-77
2021/12/01 00:53:30;;;;;;;0.90;0.50;;;;;;;;;;5075107;28;20812;-79
2021/12/01 00:55:57;;;;;;;1.07;0.50;;;;;;;;;;5076015;28;20739;-78
2021/12/01 00:58:23;;;;;;;0.90;0.50;;;;;;;;;;5075772;28;20461;-78
2021/12/01 01:00:49;;;;;;;1.00;0.50;;;;;;;;;;5073526;28;20431;-78
2021/12/01 01:03:15;;;;;;;0.90;0.40;;;;;;;;;;5072641;28;20435;-78
2021/12/01 01:05:41;;;;;;;0.90;0.40;;;;;;;;;;5072577;28;20786;-78
2021/12/01 01:08:08;;;;;;;1.10;0.50;;;;;;;;;;5071410;28;20458;-78
2021/12/01 01:18:34;;;;;;;1.00;0.60;;;;;;;;;;5072380;28;20421;-79
2021/12/01 01:21:00;;;;;;;0.90;0.50;;;;;;;;;;5071577;28;20446;-78
2021/12/01 01:23:29;;;;;;;0.90;0.50;;;;;;;;;;5072768;28;20457;-79
2021/12/01 01:25:55;;;;;;;0.90;0.50;;;;;;;;;;5071219;28;20489;-79
2021/12/01 01:28:21;;;;;;;0.90;0.50;;;;;;;;;;5072370;28;20462;-79
2021/12/01 01:30:47;;;;;;;0.90;0.50;;;;;;;;;;5072126;28;20430;-79
2021/12/01 01:33:13;;;;;;;1.00;0.50;;;;;;;;;;5072538;28;20490;-79
2021/12/01 01:35:39;;;;;;;1.10;0.50;;;;;;;;;;5072422;28;20482;-79
2021/12/01 01:38:05;;;;;;;1.00;0.60;;;;;;;;;;5071986;28;20482;-80
2021/12/01 01:40:32;;;;;;;1.33;0.60;;;;;;;;;;5072324;28;21007;-80
2021/12/01 01:42:58;;;;;;;0.90;0.50;;;;;;;;;;5072553;28;20415;-78
2021/12/01 01:45:24;;;;;;;1.50;0.50;;;;;;;;;;5072547;28;20415;-77
2021/12/01 01:47:59;;;;;;;0.90;0.50;;;;;;;;;;5072579;28;20439;-78
2021/12/01 01:50:35;;;;;;;1.47;0.60;;;;;;;;;;5072723;28;20496;-78
2021/12/01 01:53:01;;;;;;;1.13;0.50;;;;;;;;;;5073217;28;20422;-77
2021/12/01 01:55:27;;;;;;;1.20;0.60;;;;;;;;;;5072757;28;20820;-77
2021/12/01 01:57:53;;;;;;;0.90;0.50;;;;;;;;;;5073417;28;20407;-80
2021/12/01 02:00:19;;;;;;;0.90;0.50;;;;;;;;;;5073403;28;20427;-78
2021/12/01 02:02:46;;;;;;;1.13;0.60;;;;;;;;;;5077840;28;20419;-78
2021/12/01 02:05:12;;;;;;;1.13;0.60;;;;;;;;;;5077914;28;20409;-79
2021/12/01 02:07:38;;;;;;;1.30;0.50;;;;;;;;;;5075647;28;20446;-78
2021/12/01 02:10:04;;;;;;;1.10;0.60;;;;;;;;;;5076558;28;20414;-77
2021/12/01 02:12:30;;;;;;;0.90;0.50;;;;;;;;;;5076134;28;20426;-78
2021/12/01 02:14:56;;;;;;;0.90;0.40;;;;;;;;;;5077384;28;20402;-78
2021/12/01 02:17:22;;;;;;;0.90;0.50;;;;;;;;;;5077176;28;20442;-77
2021/12/01 02:19:52;;;;;;;1.00;0.60;;;;;;;;;;5076107;28;20407;-79
2021/12/01 02:22:18;;;;;;;10.53;0.80;;;;;;;;;;5074429;28;20497;-77
2021/12/01 02:24:47;;;;;;;1.00;0.50;;;;;;;;;;5075483;28;20426;-78
2021/12/01 02:27:14;;;;;;;0.90;0.50;;;;;;;;;;5075287;28;20504;-79
2021/12/01 02:29:40;;;;;;;1.10;0.60;;;;;;;;;;5074797;28;20402;-78
2021/12/01 02:32:06;;;;;;;1.10;0.50;;;;;;;;;;5075042;28;20399;-79
2021/12/01 02:34:38;;;;;;;2.53;0.57;;;;;;;;;;5074974;28;20448;-78
2021/12/01 02:37:05;;;;;;;0.90;0.50;;;;;;;;;;5074355;28;20426;-76
2021/12/01 02:39:31;;;;;;;0.90;0.40;;;;;;;;;;5075497;28;20410;-76
2021/12/01 02:42:00;;;;;;;1.10;0.60;;;;;;;;;;5075264;28;20395;-76
2021/12/01 02:44:27;;;;;;;2.23;0.60;;;;;;;;;;5073849;28;20415;-76
2021/12/01 02:46:54;;;;;;;1.10;0.50;;;;;;;;;;5075028;28;20457;-76
2021/12/01 02:49:21;;;;;;;0.90;0.50;;;;;;;;;;5074709;28;20399;-76
2021/12/01 02:51:48;;;;;;;1.10;0.50;;;;;;;;;;5075326;28;20787;-75
2021/12/01 02:54:15;;;;;;;1.00;0.50;;;;;;;;;;5075785;28;20498;-76
2021/12/01 02:56:45;;;;;;;0.90;0.50;;;;;;;;;;5075304;28;20446;-76
2021/12/01 02:59:11;;;;;;;1.20;0.50;;;;;;;;;;5074820;28;20464;-78
2021/12/01 03:01:37;;;;;;;0.90;0.50;;;;;;;;;;5074772;28;20511;-78
2021/12/01 03:04:04;;;;;;;0.90;0.50;;;;;;;;;;5074657;28;20490;-78
2021/12/01 03:06:31;;;;;;;0.90;0.60;;;;;;;;;;5074487;28;20407;-77
2021/12/01 03:08:57;;;;;;;0.90;0.50;;;;;;;;;;5074040;28;20453;-77
2021/12/01 03:11:23;;;;;;;0.90;0.50;;;;;;;;;;5073539;28;20956;-77
2021/12/01 03:13:49;;;;;;;0.90;0.50;;;;;;;;;;5074133;28;20424;-77
2021/12/01 03:16:15;;;;;;;1.83;0.50;;;;;;;;;;5074479;28;20429;-77
2021/12/01 03:18:44;;;;;;;0.90;0.50;;;;;;;;;;5074571;28;20441;-78
2021/12/01 03:21:11;;;;;;;0.90;0.50;;;;;;;;;;5075501;28;20949;-78
2021/12/01 03:23:37;;;;;;;0.90;0.50;;;;;;;;;;5074817;28;20931;-78
2021/12/01 03:26:03;;;;;;;0.90;0.50;;;;;;;;;;5075498;28;20403;-78
2021/12/01 03:28:29;;;;;;;1.10;0.60;;;;;;;;;;5075457;28;20468;-78
2021/12/01 03:30:55;;;;;;;1.00;0.53;;;;;;;;;;5074608;28;20551;-76
2021/12/01 03:33:22;;;;;;;0.90;0.50;;;;;;;;;;5075451;28;20809;-76
2021/12/01 03:35:50;;;;;;;0.90;0.50;;;;;;;;;;5075219;28;20453;-75
2021/12/01 03:38:16;;;;;;;2.20;0.67;;;;;;;;;;5075666;28;20452;-76
2021/12/01 03:40:42;;;;;;;1.00;0.50;;;;;;;;;;5075807;28;20431;-76
2021/12/01 03:43:08;;;;;;;1.37;0.50;;;;;;;;;;5075773;28;20489;-75
2021/12/01 03:45:35;;;;;;;0.90;0.50;;;;;;;;;;5074889;28;20406;-75
2021/12/01 03:48:01;;;;;;;0.90;0.50;;;;;;;;;;5073643;28;20458;-76
2021/12/01 03:50:27;;;;;;;0.90;0.50;;;;;;;;;;5073397;28;20431;-75
2021/12/01 03:52:53;;;;;;;0.90;0.50;;;;;;;;;;5074832;28;20468;-76
2021/12/01 03:55:19;;;;;;;1.00;0.50;;;;;;;;;;5074817;28;20403;-76
2021/12/01 03:57:46;;;;;;;0.90;0.50;;;;;;;;;;5074568;28;20403;-76
2021/12/01 04:00:13;;;;;;;1.00;0.50;;;;;;;;;;5074444;28;20932;-76
2021/12/01 04:02:39;;;;;;;0.90;0.40;;;;;;;;;;5073290;28;21076;-76
2021/12/01 04:05:05;;;;;;;1.10;0.50;;;;;;;;;;5074807;28;20493;-75
2021/12/01 04:07:32;;;;;;;1.00;0.60;;;;;;;;;;5074474;28;20446;-76
2021/12/01 04:09:58;;;;;;;0.90;0.50;;;;;;;;;;5073917;28;20427;-76
2021/12/01 04:12:24;;;;;;;0.90;0.50;;;;;;;;;;5073035;28;20756;-75
2021/12/01 04:14:50;;;;;;;1.13;0.60;;;;;;;;;;5074341;28;20452;-76
2021/12/01 04:17:16;;;;;;;0.90;0.50;;;;;;;;;;5074058;28;20465;-75
2021/12/01 04:19:42;;;;;;;0.90;0.50;;;;;;;;;;5073618;28;20417;-76
2021/12/01 04:22:08;;;;;;;0.90;0.50;;;;;;;;;;5074091;28;20758;-77
2021/12/01 04:24:34;;;;;;;1.00;0.60;;;;;;;;;;5072678;28;20748;-77
2021/12/01 04:27:00;;;;;;;0.90;0.50;;;;;;;;;;5073267;28;20950;-77
2021/12/01 04:29:26;;;;;;;0.90;0.50;;;;;;;;;;5072863;28;20486;-77
2021/12/01 04:31:52;;;;;;;1.00;0.60;;;;;;;;;;5072893;28;20419;-77
2021/12/01 04:34:20;;;;;;;0.90;0.50;;;;;;;;;;5073208;28;20588;-77
2021/12/01 04:36:47;;;;;;;0.90;0.50;;;;;;;;;;5073564;28;20407;-77
2021/12/01 04:39:14;;;;;;;1.00;0.50;;;;;;;;;;5073090;28;20428;-77
2021/12/01 04:41:49;;;;;;;0.90;0.50;;;;;;;;;;5073070;28;20529;-76
2021/12/01 04:44:15;;;;;;;0.90;0.50;;;;;;;;;;5072146;28;20421;-77
2021/12/01 04:46:46;;;;;;;0.90;0.50;;;;;;;;;;5073818;28;20395;-76
2021/12/01 04:49:13;;;;;;;1.00;0.50;;;;;;;;;;5072460;28;20431;-79
2021/12/01 04:51:41;;;;;;;1.00;0.60;;;;;;;;;;5073387;28;20449;-78
2021/12/01 04:54:07;;;;;;;0.90;0.50;;;;;;;;;;5073142;28;20411;-77
2021/12/01 04:56:33;;;;;;;1.33;0.70;;;;;;;;;;5073662;28;20460;-78
2021/12/01 04:58:59;;;;;;;0.90;0.40;;;;;;;;;;5072849;28;20480;-78
2021/12/01 05:01:25;;;;;;;1.20;0.50;;;;;;;;;;5071538;28;20521;-78
2021/12/01 05:03:51;;;;;;;1.40;0.50;;;;;;;;;;5072826;28;20468;-78
2021/12/01 05:06:18;;;;;;;0.90;0.50;;;;;;;;;;5071894;28;20415;-77
2021/12/01 05:08:45;;;;;;;1.00;0.50;;;;;;;;;;5072422;28;20446;-79
2021/12/01 05:11:11;;;;;;;0.90;0.50;;;;;;;;;;5073037;28;20462;-77
2021/12/01 05:13:37;;;;;;;0.90;0.50;;;;;;;;;;5073635;28;20874;-76
2021/12/01 05:16:03;;;;;;;0.90;0.50;;;;;;;;;;5074575;28;20403;-76
2021/12/01 05:18:29;;;;;;;1.17;0.50;;;;;;;;;;5074779;28;20410;-76
2021/12/01 05:20:55;;;;;;;0.90;0.50;;;;;;;;;;5091881;22;20487;-78
2021/12/01 05:23:21;;;;;;;0.90;0.50;;;;;;;;;;5078017;28;20428;-78
2021/12/01 05:25:47;;;;;;;0.90;0.50;;;;;;;;;;5092150;28;20399;-80
2021/12/01 05:28:13;;;;;;;0.90;0.50;;;;;;;;;;5092451;28;20476;-80
2021/12/01 05:30:39;;;;;;;0.90;0.50;;;;;;;;;;5077788;28;20433;-81
2021/12/01 05:33:08;;;;;;;0.90;0.50;;;;;;;;;;5112336;28;20980;-79
2021/12/01 05:35:34;;;;;;;1.30;0.50;;;;;;;;;;5111957;28;20433;-80
2021/12/01 05:38:01;;;;;;;0.90;0.50;;;;;;;;;;5112513;28;20411;-79
2021/12/01 05:40:27;;;;;;;0.90;0.40;;;;;;;;;;5111832;28;20915;-79
2021/12/01 05:42:53;;;;;;;0.90;0.50;;;;;;;;;;5112232;28;20443;-79
2021/12/01 05:45:19;;;;;;;1.00;0.50;;;;;;;;;;5112040;28;20465;-79
2021/12/01 05:47:45;;;;;;;1.00;0.50;;;;;;;;;;5112150;28;20451;-79
2021/12/01 05:50:11;;;;;;;1.00;0.50;;;;;;;;;;5093701;28;20406;-79
2021/12/01 05:52:37;;;;;;;0.90;0.40;;;;;;;;;;5112305;28;20908;-79
2021/12/01 05:55:04;;;;;;;1.00;0.50;;;;;;;;;;5112024;28;20467;-79
2021/12/01 05:57:30;;;;;;;0.90;0.50;;;;;;;;;;5112105;28;20745;-80
2021/12/01 05:59:59;;;;;;;0.90;0.40;;;;;;;;;;5106811;28;20413;-80
2021/12/01 06:02:25;;;;;;;0.90;0.50;;;;;;;;;;5095346;28;20469;-80
2021/12/01 06:04:51;;;;;;;1.00;0.50;;;;;;;;;;5099249;28;20412;-78
2021/12/01 06:07:18;;;;;;;0.90;0.50;;;;;;;;;;5112311;28;20545;-78
2021/12/01 06:09:44;;;;;;;0.90;0.50;;;;;;;;;;5098090;28;20531;-78
2021/12/01 06:12:12;;;;;;;4.63;0.70;;;;;;;;;;5104267;28;20439;-78
2021/12/01 06:14:38;;;;;;;1.00;0.50;;;;;;;;;;5112738;28;20409;-78
2021/12/01 06:17:04;;;;;;;2.37;0.70;;;;;;;;;;5112666;28;20401;-79
2021/12/01 06:19:30;;;;;;;1.73;0.60;;;;;;;;;;5108418;28;20425;-79
2021/12/01 06:21:56;;;;;;;1.40;0.77;;;;;;;;;;5110086;28;20501;-79
2021/12/01 06:24:22;;;;;;;1.43;0.70;;;;;;;;;;5093298;28;20823;-80
2021/12/01 06:26:48;;;;;;;1.97;0.90;;;;;;;;;;5102183;28;20445;-78
2021/12/01 06:29:15;;;;;;;3.33;1.00;;;;;;;;;;5100420;28;20499;-79
2021/12/01 06:31:41;;;;;;;3.37;1.03;;;;;;;;;;5092269;28;20441;-79
2021/12/01 06:34:07;;;;;;;1.10;0.70;;;;;;;;;;5109381;28;20397;-78
2021/12/01 06:36:33;;;;;;;2.03;0.90;;;;;;;;;;5109041;28;20416;-79
2021/12/01 06:38:59;;;;;;;4.57;0.87;;;;;;;;;;5109331;28;20444;-79
2021/12/01 06:41:25;;;;;;;1.10;0.70;;;;;;;;;;5091090;28;20468;-79
2021/12/01 06:43:51;;;;;;;1.70;0.83;;;;;;;;;;5110271;28;20409;-78
2021/12/01 06:46:17;;;;;;;3.20;0.80;;;;;;;;;;5111065;28;20476;-79
2021/12/01 06:48:43;;;;;;;4.30;1.07;;;;;;;;;;5114684;28;20518;-79
2021/12/01 06:51:09;;;;;;;1.13;0.77;;;;;;;;;;5115032;28;20423;-77
2021/12/01 06:53:35;;;;;;;1.93;0.90;;;;;;;;;;5115177;28;20404;-77
2021/12/01 06:56:01;;;;;;;1.73;0.80;;;;;;;;;;5097168;28;20485;-79
2021/12/01 06:58:27;;;;;;;1.03;0.60;;;;;;;;;;5115589;28;20412;-80
2021/12/01 07:00:53;;;;;;;1.20;0.50;;;;;;;;;;5115296;28;20475;-78
2021/12/01 07:03:19;;;;;;;1.37;0.70;;;;;;;;;;5114904;28;20397;-78
2021/12/01 07:05:45;;;;;;;3.70;0.67;;;;;;;;;;5114754;28;20397;-77
2021/12/01 07:08:11;;;;;;;1.20;0.60;;;;;;;;;;5114803;28;20505;-78
2021/12/01 07:10:37;;;;;;;1.23;0.50;;;;;;;;;;5114600;28;20417;-79
2021/12/01 07:13:03;;;;;;;8.23;0.70;;;;;;;;;;5114809;28;20435;-79
2021/12/01 07:15:29;;;;;;;1.30;0.63;;;;;;;;;;5114501;28;20425;-79
2021/12/01 07:17:55;;;;;;;4.40;0.90;;;;;;;;;;5114506;28;20891;-78
2021/12/01 07:20:21;;;;;;;1.00;0.53;;;;;;;;;;5095807;28;20918;-78
2021/12/01 07:22:47;;;;;;;2.33;0.60;;;;;;;;;;5114850;28;20751;-80
2021/12/01 07:25:13;;;;;;;1.00;0.50;;;;;;;;;;5115361;28;20405;-80
2021/12/01 07:27:40;;;;;;;0.90;0.47;;;;;;;;;;5114960;28;20532;-80
2021/12/01 07:30:07;;;;;;;3.43;0.60;;;;;;;;;;5114221;28;20416;-78
2021/12/01 07:32:33;;;;;;;0.90;0.40;;;;;;;;;;5114745;28;20448;-80
2021/12/01 07:34:59;;;;;;;1.00;0.50;;;;;;;;;;5115195;28;20437;-81
2021/12/01 07:37:25;;;;;;;5.43;0.70;;;;;;;;;;5096791;28;20486;-78
2021/12/01 07:39:51;;;;;;;1.93;0.80;;;;;;;;;;5114006;28;20413;-78
2021/12/01 07:42:17;;;;;;;1.10;0.50;;;;;;;;;;5109409;28;20421;-77
2021/12/01 07:44:44;;;;;;;1.40;0.80;;;;;;;;;;5092369;28;20413;-78
2021/12/01 07:47:11;;;;;;;1.00;0.50;;;;;;;;;;5094104;28;20431;-78
2021/12/01 07:49:37;;;;;;;0.90;0.50;;;;;;;;;;5076590;28;20486;-79
2021/12/01 07:52:05;;;;;;;1.17;0.50;;;;;;;;;;5096025;28;20475;-80
2021/12/01 07:54:31;;;;;;;1.00;0.60;;;;;;;;;;5076885;28;20420;-80
2021/12/01 07:56:57;;;;;;;2.40;0.70;;;;;;;;;;5094952;28;20390;-81
2021/12/01 07:59:24;;;;;;;1.10;0.60;;;;;;;;;;5095347;28;20757;-80
2021/12/01 08:01:50;;;;;;;0.90;0.50;;;;;;;;;;5094945;28;20921;-80
2021/12/01 08:04:16;;;;;;;0.90;0.50;;;;;;;;;;5076737;28;20456;-80
2021/12/01 08:06:43;;;;;;;2.17;0.80;;;;;;;;;;5094354;28;20420;-79
2021/12/01 08:09:10;;;;;;;1.20;0.60;;;;;;;;;;5075759;28;20488;-79
2021/12/01 08:11:38;;;;;;;0.90;0.50;;;;;;;;;;5076140;28;20434;-80
2021/12/01 08:14:06;;;;;;;1.10;0.60;;;;;;;;;;5076550;28;20908;-81
2021/12/01 08:16:32;;;;;;;5.13;0.70;;;;;;;;;;5094851;28;20766;-79
2021/12/01 08:18:59;;;;;;;1.20;0.60;;;;;;;;;;5076395;28;20418;-79
2021/12/01 08:21:25;;;;;;;0.97;0.50;;;;;;;;;;5094129;28;20452;-80
2021/12/01 08:23:52;;;;;;;1.93;0.70;;;;;;;;;;5095064;28;20822;-79
2021/12/01 08:26:19;;;;;;;1.33;0.60;;;;;;;;;;5096809;28;20463;-79
2021/12/01 08:28:46;;;;;;;0.90;0.50;;;;;;;;;;5095687;28;20816;-79
2021/12/01 08:31:15;;;;;;;0.90;0.40;;;;;;;;;;5093908;28;20421;-79
2021/12/01 08:33:41;;;;;;;0.90;0.50;;;;;;;;;;5075303;28;20414;-80
2021/12/01 08:36:09;;;;;;;1.20;0.50;;;;;;;;;;5092942;28;20958;-79
2021/12/01 08:38:36;;;;;;;1.13;0.70;;;;;;;;;;5074722;28;20539;-79
2021/12/01 08:41:02;;;;;;;1.03;0.60;;;;;;;;;;5092532;28;20430;-79
2021/12/01 08:43:28;;;;;;;1.00;0.50;;;;;;;;;;5092871;28;20939;-78
2021/12/01 08:45:54;;;;;;;1.53;0.60;;;;;;;;;;5092235;28;20441;-77
2021/12/01 08:48:20;;;;;;;0.90;0.50;;;;;;;;;;5092551;28;20482;-77
2021/12/01 08:50:46;;;;;;;5.90;0.93;;;;;;;;;;5073853;28;20436;-78
2021/12/01 08:53:12;;;;;;;1.47;0.70;;;;;;;;;;5092515;28;20796;-77
2021/12/01 08:55:41;;;;;;;3.13;0.77;;;;;;;;;;5092259;28;20401;-77
2021/12/01 08:58:07;;;;;;;1.00;0.50;;;;;;;;;;5073934;28;20420;-79
2021/12/01 09:00:36;;;;;;;1.00;0.70;;;;;;;;;;5092057;28;20910;-79
2021/12/01 09:03:02;;;;;;;3.47;0.67;;;;;;;;;;5074333;28;20893;-78
2021/12/01 09:05:28;;;;;;;1.90;0.93;;;;;;;;;;5092121;28;20455;-77
2021/12/01 09:07:54;;;;;;;1.90;0.80;;;;;;;;;;5092204;28;20453;-78
2021/12/01 09:10:20;;;;;;;0.90;0.50;;;;;;;;;;5091037;28;20404;-78
2021/12/01 09:12:46;;;;;;;1.10;0.60;;;;;;;;;;5092203;28;20489;-78
2021/12/01 09:15:14;;;;;;;6.00;1.40;;;;;;;;;;5092095;28;20401;-78
2021/12/01 09:17:40;;;;;;;2.77;0.77;;;;;;;;;;5092118;28;20406;-78
2021/12/01 09:20:06;;;;;;;1.40;0.90;;;;;;;;;;5091767;28;20406;-79
2021/12/01 09:22:32;;;;;;;1.43;0.70;;;;;;;;;;5091504;28;20475;-77
2021/12/01 09:24:58;;;;;;;1.50;0.93;;;;;;;;;;5091810;28;20409;-77
2021/12/01 09:27:24;;;;;;;1.30;0.80;;;;;;;;;;5073754;28;20445;-78
2021/12/01 09:29:53;;;;;;;3.07;1.20;;;;;;;;;;5091515;28;20427;-78
2021/12/01 09:32:19;;;;;;;1.40;1.00;;;;;;;;;;5091698;28;21033;-77
2021/12/01 09:34:45;;;;;;;4.27;1.30;;;;;;;;;;5073319;28;20445;-77
2021/12/01 09:37:11;;;;;;;6.37;1.90;;;;;;;;;;5073786;28;20406;-77
2021/12/01 09:39:37;;;;;;;2.60;0.90;;;;;;;;;;5091369;28;20406;-77
2021/12/01 09:42:04;;;;;;;5.63;1.50;;;;;;;;;;5091716;28;20422;-76
2021/12/01 09:44:31;;;;;;;4.87;1.77;;;;;;;;;;5091724;28;20398;-76
2021/12/01 09:46:57;;;;;;;2.03;1.00;;;;;;;;;;5091510;28;20413;-78
2021/12/01 09:49:23;;;;;;;0.90;0.40;;;;;;;;;;5091299;28;20548;-79
2021/12/01 09:51:49;;;;;;;3.70;2.10;;;;;;;;;;5092002;28;20422;-78
2021/12/01 09:54:15;;;;;;;1.10;0.70;;;;;;;;;;5093602;28;20398;-78
2021/12/01 09:56:41;;;;;;;2.23;0.60;;;;;;;;;;5074937;28;20447;-78
2021/12/01 09:59:08;;;;;;;2.00;1.00;;;;;;;;;;5092857;28;20409;-78
2021/12/01 10:01:34;;;;;;;1.50;0.70;;;;;;;;;;5092484;28;20792;-78
2021/12/01 10:04:00;;;;;;;1.00;0.70;;;;;;;;;;5092133;28;20444;-78
2021/12/01 10:06:27;;;;;;;1.87;0.87;;;;;;;;;;5092044;28;20405;-78
2021/12/01 10:08:56;;;;;;;1.23;0.60;;;;;;;;;;5091571;28;20441;-79
2021/12/01 10:11:26;;;;;;;1.10;0.67;;;;;;;;;;5091760;28;20882;-78
2021/12/01 10:13:56;;;;;;;1.50;0.60;;;;;;;;;;5091657;28;20382;-77
2021/12/01 10:16:23;;;;;;;2.07;0.80;;;;;;;;;;5091523;28;20473;-77
2021/12/01 10:18:50;;;;;;;6.30;1.40;;;;;;;;;;5073070;28;20495;-77
2021/12/01 10:21:21;;;;;;;1.27;0.67;;;;;;;;;;5091256;28;20537;-77
2021/12/01 10:23:49;;;;;;;1.53;0.83;;;;;;;;;;5077129;28;20458;-77
2021/12/01 10:26:15;;;;;;;3.73;0.60;;;;;;;;;;5095080;28;20437;-77
2021/12/01 10:28:45;;;;;;;2.37;0.80;;;;;;;;;;5095015;28;20959;-78
2021/12/01 10:31:12;;;;;;;2.97;0.80;;;;;;;;;;5094890;28;20467;-77
2021/12/01 10:33:38;;;;;;;1.97;1.17;;;;;;;;;;5095169;28;20440;-77
2021/12/01 10:36:07;;;;;;;3.10;0.67;;;;;;;;;;5095067;28;20947;-77
2021/12/01 10:38:36;;;;;;;1.30;0.70;;;;;;;;;;5094790;28;20809;-77
2021/12/01 10:41:04;;;;;;;1.17;0.57;;;;;;;;;;5076363;28;20990;-78
2021/12/01 10:43:37;;;;;;;2.90;1.03;;;;;;;;;;5095041;28;21089;-76
2021/12/01 10:46:08;;;;;;;3.23;0.70;;;;;;;;;;5094876;28;20824;-77
2021/12/01 10:48:34;;;;;;;2.07;0.60;;;;;;;;;;5076574;28;20460;-77
2021/12/01 10:51:00;;;;;;;0.90;0.50;;;;;;;;;;5094148;28;20417;-77
2021/12/01 10:53:27;;;;;;;1.00;0.50;;;;;;;;;;5094845;28;20401;-78
2021/12/01 10:56:00;;;;;;;2.70;0.93;;;;;;;;;;5094590;28;20418;-77
2021/12/01 10:58:39;;;;;;;1.00;0.50;;;;;;;;;;5094844;28;20390;-78
2021/12/01 11:01:18;;;;;;;0.97;0.57;;;;;;;;;;5094189;28;20823;-77
2021/12/01 11:03:45;;;;;;;2.50;0.90;;;;;;;;;;5076444;28;20460;-78
2021/12/01 11:06:14;;;;;;;1.00;0.50;;;;;;;;;;5094419;28;20409;-78
2021/12/01 11:08:41;;;;;;;1.20;0.60;;;;;;;;;;5094436;28;20502;-77
2021/12/01 11:11:12;;;;;;;1.00;0.60;;;;;;;;;;5094479;28;20578;-78
2021/12/01 11:13:42;;;;;;;2.90;0.73;;;;;;;;;;5094363;28;20951;-78
2021/12/01 11:16:10;;;;;;;2.70;0.60;;;;;;;;;;5094193;28;20456;-77
2021/12/01 11:18:38;;;;;;;4.50;0.77;;;;;;;;;;5076300;28;20813;-78
2021/12/01 11:21:07;;;;;;;1.20;0.50;;;;;;;;;;5093884;28;20457;-78
2021/12/01 11:23:54;;;;;;;3.03;0.77;;;;;;;;;;5076282;28;20472;-78
2021/12/01 11:26:21;;;;;;;0.90;0.50;;;;;;;;;;5093735;28;20557;-78
2021/12/01 11:28:48;;;;;;;1.10;0.60;;;;;;;;;;5094004;28;20449;-79
2021/12/01 11:31:16;;;;;;;1.00;0.50;;;;;;;;;;5095136;28;20498;-79
2021/12/01 11:33:46;;;;;;;1.80;0.90;;;;;;;;;;5093379;28;20766;-79
2021/12/01 11:36:15;;;;;;;0.90;0.50;;;;;;;;;;5093642;28;20880;-79
2021/12/01 11:38:42;;;;;;;6.50;0.70;;;;;;;;;;5094548;28;20429;-85
2021/12/01 11:41:08;;;;;;;1.20;0.60;;;;;;;;;;5094453;28;20418;-80
2021/12/01 11:43:35;;;;;;;1.50;0.60;;;;;;;;;;5094475;28;20429;-79
2021/12/01 11:46:02;;;;;;;1.57;0.70;;;;;;;;;;5094627;28;20406;-81
2021/12/01 11:48:29;;;;;;;2.50;0.60;;;;;;;;;;5094395;28;20499;-79
2021/12/01 11:51:08;;;;;;;1.20;0.60;;;;;;;;;;5075576;28;20479;-79
2021/12/01 11:53:37;;;;;;;0.90;0.40;;;;;;;;;;5094338;28;20731;-80
2021/12/01 11:56:17;;;;;;;0.90;0.50;;;;;;;;;;5075985;28;20445;-79
2021/12/01 11:58:44;;;;;;;1.73;0.50;;;;;;;;;;5093769;28;20394;-80
2021/12/01 12:01:22;;;;;;;4.20;0.77;;;;;;;;;;5093725;28;20426;-78
2021/12/01 12:03:54;;;;;;;0.90;0.50;;;;;;;;;;5093559;28;20414;-79
2021/12/01 12:06:23;;;;;;;1.10;0.60;;;;;;;;;;5093551;28;20489;-78
2021/12/01 12:08:59;;;;;;;0.90;0.50;;;;;;;;;;5093305;28;20449;-78
2021/12/01 12:11:38;;;;;;;2.27;0.63;;;;;;;;;;5103954;28;20486;-79
2021/12/01 12:14:12;;;;;;;1.57;0.70;;;;;;;;;;5091930;28;20431;-79
2021/12/01 12:16:39;;;;;;;3.53;1.10;;;;;;;;;;5094720;28;20413;-80
2021/12/01 12:19:05;;;;;;;3.07;0.80;;;;;;;;;;5094359;28;20930;-81
2021/12/01 12:24:04;;;;;;;1.00;0.60;;;;;;;;;;5056445;28;20400;-85
2021/12/01 12:26:33;;;;;;;5.53;0.80;;;;;;;;;;5054654;28;20889;-85
2021/12/01 12:29:05;;;;;;;2.23;0.60;;;;;;;;;;5052390;28;20455;-85
2021/12/01 12:31:31;;;;;;;2.60;0.80;;;;;;;;;;5055551;28;20439;-84
2021/12/01 12:33:59;;;;;;;1.67;0.70;;;;;;;;;;5055972;28;20396;-83
2021/12/01 12:36:54;;;;;;;1.93;0.97;;;;;;;;;;5055937;28;20412;-84
2021/12/01 12:39:23;;;;;;;2.40;1.00;;;;;;;;;;5052950;28;20496;-83
2021/12/01 12:41:57;;;;;;;4.97;0.70;;;;;;;;;;5057928;28;20446;-83
2021/12/01 12:44:29;;;;;;;1.30;0.63;;;;;;;;;;5054936;28;20407;-83
2021/12/01 12:47:07;;;;;;;2.57;0.70;;;;;;;;;;5054321;28;20498;-81
2021/12/01 12:50:01;;;;;;;1.07;0.57;;;;;;;;;;5054309;28;20861;-81
2021/12/01 12:52:27;;;;;;;1.13;0.60;;;;;;;;;;5049802;28;20419;-81
2021/12/01 12:54:54;;;;;;;1.00;0.60;;;;;;;;;;5054919;28;20408;-81
2021/12/01 12:57:21;;;;;;;0.90;0.50;;;;;;;;;;5051235;28;20888;-81
2021/12/01 12:59:47;;;;;;;0.97;0.50;;;;;;;;;;5045200;28;20791;-87
2021/12/01 13:02:16;;;;;;;3.00;0.80;;;;;;;;;;5052551;28;20466;-84
2021/12/01 13:04:49;;;;;;;1.30;0.80;;;;;;;;;;5055562;28;20449;-81
2021/12/01 13:07:34;;;;;;;1.30;0.60;;;;;;;;;;5057220;28;20775;-83
2021/12/01 13:10:03;;;;;;;1.03;0.60;;;;;;;;;;5055397;28;20444;-84
2021/12/01 13:12:29;;;;;;;1.10;0.60;;;;;;;;;;5056344;28;20424;-84
2021/12/01 13:14:55;;;;;;;1.00;0.50;;;;;;;;;;5059716;28;20412;-82
2021/12/01 13:17:21;;;;;;;1.80;0.90;;;;;;;;;;5053922;28;20403;-84
2021/12/01 13:19:49;;;;;;;1.10;0.67;;;;;;;;;;5053877;28;20503;-84
2021/12/01 13:22:15;;;;;;;1.10;0.57;;;;;;;;;;5051209;28;20533;-84
2021/12/01 13:24:42;;;;;;;1.67;0.80;;;;;;;;;;5052093;28;20444;-84
2021/12/01 13:27:08;;;;;;;0.90;0.50;;;;;;;;;;5054361;28;20461;-82
2021/12/01 13:29:35;;;;;;;2.10;0.53;;;;;;;;;;5053373;28;20454;-84
2021/12/01 13:32:02;;;;;;;1.77;0.80;;;;;;;;;;5055486;28;20445;-83
2021/12/01 13:34:33;;;;;;;1.63;0.87;;;;;;;;;;5056173;28;20514;-84
2021/12/01 13:37:02;;;;;;;2.30;1.27;;;;;;;;;;5052822;28;20431;-85
2021/12/01 13:39:28;;;;;;;1.33;0.67;;;;;;;;;;5054247;28;21112;-84
2021/12/01 13:41:59;;;;;;;1.33;0.50;;;;;;;;;;5052583;28;20438;-86
2021/12/01 13:44:34;;;;;;;1.10;0.70;;;;;;;;;;5053715;28;20763;-86
2021/12/01 13:47:06;;;;;;;0.90;0.50;;;;;;;;;;5058171;28;20439;-87
2021/12/01 13:49:51;;;;;;;1.20;0.60;;;;;;;;;;5056783;28;20543;-88
2021/12/01 13:52:34;;;;;;;1.10;0.57;;;;;;;;;;5034903;28;20449;-86
2021/12/01 13:55:15;;;;;;;1.60;0.70;;;;;;;;;;5031720;28;20928;-87
2021/12/01 13:57:43;;;;;;;1.20;0.70;;;;;;;;;;5036062;28;20505;-84
2021/12/01 14:00:10;;;;;;;1.00;0.60;;;;;;;;;;5036425;28;20919;-87
2021/12/01 14:02:42;;;;;;;1.00;0.50;;;;;;;;;;5051217;28;20803;-87
2021/12/01 14:05:10;;;;;;;6.57;0.90;;;;;;;;;;5057904;28;20431;-86
2021/12/01 14:07:37;;;;;;;1.93;0.80;;;;;;;;;;5056933;28;20467;-86
2021/12/01 14:10:12;;;;;;;2.57;0.83;;;;;;;;;;5058622;28;20910;-87
2021/12/01 14:12:43;;;;;;;0.90;0.50;;;;;;;;;;5056355;28;20483;-87
2021/12/01 14:15:10;;;;;;;1.40;0.60;;;;;;;;;;5057436;28;20445;-87
2021/12/01 14:17:38;;;;;;;1.10;0.60;;;;;;;;;;5056694;28;20451;-86
2021/12/01 14:20:08;;;;;;;1.30;0.60;;;;;;;;;;5054096;28;20419;-86
2021/12/01 14:22:35;;;;;;;1.00;0.60;;;;;;;;;;5055767;28;20499;-86
2021/12/01 14:25:02;;;;;;;0.90;0.50;;;;;;;;;;5055361;28;20867;-83
2021/12/01 14:27:37;;;;;;;1.30;0.60;;;;;;;;;;5056503;28;20474;-83
2021/12/01 14:30:08;;;;;;;1.10;0.50;;;;;;;;;;5054459;28;20403;-83
2021/12/01 14:32:35;;;;;;;1.13;0.60;;;;;;;;;;5056463;28;20463;-84
2021/12/01 14:35:02;;;;;;;1.20;0.60;;;;;;;;;;5055851;28;20491;-83
2021/12/01 14:37:30;;;;;;;1.27;0.63;;;;;;;;;;5055703;28;20744;-84
2021/12/01 14:40:09;;;;;;;1.70;0.80;;;;;;;;;;5057781;28;20398;-84
2021/12/01 14:42:40;;;;;;;1.23;0.70;;;;;;;;;;5054731;28;20518;-84
2021/12/01 14:45:08;;;;;;;1.10;0.63;;;;;;;;;;5055982;28;20399;-84
2021/12/01 14:47:35;;;;;;;2.20;0.67;;;;;;;;;;5056949;28;20726;-86
2021/12/01 14:50:04;;;;;;;2.03;0.70;;;;;;;;;;5055209;28;20418;-84
2021/12/01 14:52:37;;;;;;;3.60;0.90;;;;;;;;;;5058212;28;20956;-82
2021/12/01 14:55:10;;;;;;;1.20;0.70;;;;;;;;;;5056149;28;20918;-82
2021/12/01 14:57:46;;;;;;;1.40;0.60;;;;;;;;;;5057736;28;20404;-83